Fredrik Sorloth

Olheiro-Chefe - Molde
3 Dez 2028
Domingo
Processo

Personalidade

Adaptabilidade (14) Ambição (20) Controvérsia (16) Lealdade (19) Pressão (11) Profissionalismo (18) Espírito Esportivo (18) Temperamento (6)

Perfil

Estilo de Treinamento Democrático
Licença Continental Pro
Determinação 7
Gestão de Pessoas 8
Motivação 6
Disciplina 6
Satisfação no Trabalho
62%
Fadiga
0%
Função Olheiro-Chefe
Salário 37.9K p/s
Contrato 14.03.2030

Desempenho

Comportamento Bom
Eficácia do Treinamento
35%
Desenvolvimento do Jogador
60%
Prevenção de Lesões
55%
Implementação Tática
65%

Eventos Recentes

Participou de uma reunião de recrutamento agora
Participou de uma reunião de recrutamento agora
Recomendou um alvo de transferência agora
Recomendou um alvo de transferência agora
Participou de uma reunião de recrutamento 7d atrás
Avaliou um jogador 7d atrás
Avaliou um jogador 7d atrás
Avaliou um jogador 7d atrás

Monitorando agora

241
Jogador Clube Status Habilidade Confiança Observado Última observação Último voto
Joel Ezra Enyimba Ativo 95 / 114 40% 7 24.11.2028 -
Celías Ingenthron Platense Ativo 116 / 130 40% 4 24.11.2028 -
Andrija Bulatović Chamois Niortais Ativo 134 / 128 40% 2 24.11.2028 -
Estanislao López Colón Ativo 94 / 95 40% 3 22.11.2028 -
Tiago Gordillo San Miguel Ativo 81 / 100 40% 2 22.11.2028 -
Filip Reshane Stabaek Ativo 95 / 107 40% 1 22.11.2028 -
Máximo Munarriz San Telmo Ativo 103 / 104 40% 4 21.11.2028 -
Aytor Herrera Mineros de Guayana Ativo 85 / 91 40% 2 21.11.2028 -
José Neto Benfica Ativo 120 / 131 40% 2 21.11.2028 -
Mauro Matorras Central Norte Ativo 96 / 102 40% 2 20.11.2028 -
Juan Camilo Córdoba Deportivo Pereira Ativo 89 / 96 40% 1 20.11.2028 -
Gideon Manaseh Ikorodu City Ativo 103 / 91 40% 5 18.11.2028 -
Rafael Mota Sporting CP Ativo 113 / 132 40% 1 18.11.2028 -
Riquelme Thompson-Jones Accrington Stanley Ativo 119 / 125 40% 8 17.11.2028 -
Noa Mikić Imotski Ativo 112 / 125 40% 2 17.11.2028 -
Felipe Pujol Vélez Ativo 115 / 120 40% 1 17.11.2028 -
Lucas Nicol Mjondalen Ativo 77 / 82 40% 5 16.11.2028 -
Noah Markmann Esbjerg Ativo 128 / 128 40% 3 16.11.2028 -
Anderson Acevedo Bogota Ativo 89 / 92 40% 1 16.11.2028 -
Azizbek To'lqinbekov Bunyodkor Ativo 97 / 100 40% 4 15.11.2028 -
Mateo Caballero Defensor Sporting Ativo 101 / 102 40% 3 15.11.2028 -
Óscar Hinojosa Metropolitanos Ativo 82 / 93 40% 4 12.11.2028 -
Diego León Rotherham United Ativo 136 / 136 40% 1 12.11.2028 -
Jan Cedilnik Chikhura Ativo 96 / 87 40% 1 12.11.2028 -
Fillip Jenssen Riise Tromso Ativo 109 / 100 40% 1 07.11.2028 -
Aaron Branca Artigas Ativo 86 / 89 40% 2 04.11.2028 -
Daniel Banjaqui Benfica Ativo 122 / 129 40% 12 01.11.2028 -
Francisco Machis Llaneros Ativo 86 / 88 40% 4 30.10.2028 -
Rene Hrvatin Istra 1961 Ativo 110 / 111 40% 1 30.10.2028 -
Andrey Ivlev Nizhniy Novgorod Ativo 113 / 124 40% 7 28.10.2028 -
Mateo Faure BATE Ativo 85 / 94 40% 4 28.10.2028 -
Felipe Varela Trujillanos Ativo 99 / 98 40% 3 26.10.2028 -
Tyson Pearce St. Louis CITY SC Ativo 101 / 109 40% 1 26.10.2028 -
Tobías Ramírez River Plate Ativo 124 / 131 40% 5 23.10.2028 -
Benito Paklayan Alvarado Ativo 91 / 97 40% 1 20.10.2028 -
Alejandro Tapia Central Norte Ativo 82 / 90 40% 2 19.10.2028 -
Tyler Fletcher Rotherham United Ativo 118 / 130 40% 9 18.10.2028 -
Malte Hallin GIF Sundsvall Ativo 85 / 99 40% 3 18.10.2028 -
Máximo Magnoli Ferro Carril Oeste Ativo 102 / 104 40% 1 18.10.2028 -
Onyeuche Ujunwa Ikorodu City Ativo 78 / 98 40% 1 15.10.2028 -
Snyder Brunell Seattle Sounders Ativo 96 / 111 40% 1 15.10.2028 -
Isa Daniel Jallow Lillestrom Ativo 84 / 101 40% 1 14.10.2028 -
Louis Page Leicester City Ativo 125 / 132 40% 1 13.10.2028 -
Umid Urunov Obod Ativo 78 / 85 40% 1 08.10.2028 -
Johan Solstad-Nøis Tromso Ativo 96 / 110 40% 1 04.10.2028 -
Lautaro Dufur Juventud Ativo 106 / 105 40% 1 02.10.2028 -
Philip Aukland Aalesund Negociando 105 / 93 72% 1 16.07.2028 Aprovar
Luke Brooke-Smith Chesterfield Ativo 93 / 116 40% 2 10.07.2028 -
Henrique Carmo Sochi Ativo 132 / 132 40% 1 10.07.2028 -
Amin Nabizada Exeter City Ativo 123 / 119 40% 1 10.07.2028 -
Siyabonga Mabena Bidvest Wits Ativo 136 / 136 40% 4 09.07.2028 Observar
Josh Nichols Oldham Athletic Ativo 128 / 121 40% 6 09.07.2028 -
Luca Williams-Barnett Walsall Ativo 133 / 140 40% 2 08.07.2028 -
Gabe Forsyth Colchester United Ativo 108 / 113 40% 2 07.07.2028 -
Kiani Inge Groningen Ativo 119 / 126 40% 6 04.07.2028 -
Alwande Booysen SuperSport United Ativo 86 / 114 40% 1 04.07.2028 -
Eduardo Fernandes Benfica Ativo 126 / 126 40% 1 04.07.2028 -
Thato Sibiya Orlando Pirates Ativo 113 / 121 40% 1 09.06.2028 -
Kamaldeen Atiemo Wa All Stars Ativo 104 / 106 40% 4 06.06.2028 -
Simone Suppa Virtus Verona Ativo 83 / 87 40% 4 05.06.2028 -
Artem Nosachev Spartak Moscow Ativo 76 / 86 40% 4 05.06.2028 -
Andrea Cogoni Cosenza Ativo 108 / 118 40% 5 04.06.2028 -
Martim Cunha Porto Ativo 112 / 105 40% 6 30.05.2028 -
Thijs Kraaijeveld USM Alger Ativo 132 / 116 40% 5 28.05.2028 -
Miguel Figueiredo Benfica Ativo 110 / 127 40% 3 27.05.2028 -
Augusto Bando Ascoli Ativo 119 / 115 40% 1 27.05.2028 -
Olivier Leroux Mouscron Ativo 108 / 110 40% 3 26.05.2028 -
Jorthy Mokio ADO Den Haag Ativo 140 / 130 40% 4 26.05.2028 -
Bernardo Lima Porto Ativo 116 / 111 40% 4 15.05.2028 -
Nicolò Moranduzzo Renate Ativo 99 / 90 40% 2 14.05.2028 -
Ahmed Zaki Masr El Makasa Ativo 75 / 88 40% 1 04.05.2028 -
Musa Danjuma Umraniyespor Ativo 92 / 104 40% 1 04.05.2028 -
Kwesi Sorotu Badori Berekum Chelsea Ativo 107 / 116 40% 2 29.04.2028 -
Abubakar Adams Aduana Stars Ativo 93 / 95 40% 1 27.04.2028 -
Federico Matarán Giana Erminio Ativo 100 / 104 40% 1 23.04.2028 -
Amine Boukamir Charleroi Ativo 97 / 106 40% 1 19.04.2028 -
Jan Bürger Northampton Town Ativo 129 / 122 40% 5 17.04.2028 -
Makar Vysochenko Spartak Moscow Ativo 95 / 99 40% 2 14.04.2028 -
Cristian Derbyshire Binga Ativo 74 / 89 40% 2 12.04.2028 -
Matvey Bardachev Zenit Ativo 112 / 119 40% 1 12.04.2028 -
Dmytro Strilchuk Podillia Ativo 84 / 93 40% 2 10.04.2028 -
Andrea Bertoncini Triestina Ativo 95 / 108 40% 2 06.04.2028 -
Victor Hernandez Santa Fe Ativo 120 / 123 40% 7 03.04.2028 -
Honest Ahanor Atalanta Ativo 131 / 150 40% 1 03.04.2028 -
Niklas Sandberg Haugesund Ativo 113 / 114 72% 1 28.02.2028 Aprovar
Alphadjo Cissé Lecce Ativo 134 / 145 40% 1 21.02.2028 -
Edvard Pettersen Sandefjord Ativo 110 / 107 40% 4 16.02.2028 -
Nazareno Roselli Defensa y Justicia Ativo 119 / 125 40% 1 31.01.2028 -
Jonás Luna Wanderers Ativo 120 / 117 40% 5 30.01.2028 -
Timur Suleimanov Nizhniy Novgorod Ativo 123 / 115 40% 1 30.01.2028 -
Patrick Agyemang Derby County Ativo 130 / 117 40% 2 29.01.2028 -
Tyreece Campbell Charlton Athletic Ativo 113 / 116 40% 3 29.01.2028 -
Alexander Díaz Deportivo Riestra Ativo 124 / 117 40% 3 24.01.2028 -
Vegard Erlien Tromso Ativo 130 / 121 40% 20 23.01.2028 -
Armstrong Oko-Flex Levski Ativo 129 / 124 40% 7 23.01.2028 -
Santiago Rodríguez Gimnasia y Esgrima Ativo 122 / 121 40% 11 23.01.2028 -
Juan Cruz de los Santos Nacional Ativo 131 / 121 40% 2 17.01.2028 -
Musa Barrow ES Setif Ativo 149 / 147 40% 1 17.01.2028 -
Jonás Acevedo Instituto Ativo 130 / 128 40% 6 16.01.2028 -
Lewis Orford Crewe Alexandra Ativo 104 / 107 40% 1 16.01.2028 -
Jonathan Moalem Cibalia Ativo 97 / 96 40% 1 16.01.2028 -
Troy Nyhammer Tromso Ativo 112 / 117 40% 1 14.01.2028 Mais informações
Luka Andrade Montevideo City Torque Ativo 103 / 102 40% 1 14.01.2028 -
Daniel Barrea Godoy Cruz Ativo 122 / 127 40% 9 13.01.2028 -
Ignacio Russo Tigre Ativo 133 / 119 40% 8 13.01.2028 -
Eli Junior Kroupi Bournemouth Ativo 147 / 140 40% 2 12.01.2028 -
Andreas Helmersen Bodo/Glimt Ativo 128 / 115 40% 10 10.01.2028 -
Evidence Makgopa Orlando Pirates Ativo 119 / 108 40% 2 10.01.2028 -
Gorka Gorosabel Real Sociedad Ativo 101 / 128 40% 2 09.01.2028 -
Jake Evans Crewe Alexandra Ativo 107 / 109 40% 1 09.01.2028 -
Marcelo Torres Gimnasia La Plata Ativo 123 / 124 40% 10 06.01.2028 -
Tyrese Campbell Sheffield United Ativo 145 / 128 40% 2 05.01.2028 -
Mateo Peralta Danubio Ativo 108 / 112 40% 2 04.01.2028 -
Lander Astiazarán Real Sociedad Ativo 120 / 117 40% 1 04.01.2028 -
Jeremías Merlo Gimnasia La Plata Ativo 125 / 121 40% 1 03.01.2028 -
Malik Mothersille Stockport County Ativo 133 / 126 40% 1 01.01.2028 -
Valentino Acuña Newell's Old Boys Ativo 107 / 117 40% 1 29.12.2027 -
Adalberto Peñaranda Deportivo Tachira Ativo 116 / 112 40% 10 26.12.2027 -
Pedro Baltika Ativo 136 / 137 40% 2 26.12.2027 -
Gianluca Prestianni Benfica Ativo 139 / 139 40% 1 26.12.2027 -
Artur Kozyrev Volna Ativo 89 / 85 40% 1 25.12.2027 -
Rodrigo Bogarín Barracas Central Ativo 118 / 113 40% 5 24.12.2027 -
Adolfo Gaich Estudiantes Ativo 120 / 118 40% 3 22.12.2027 -
Alexis Cuello San Lorenzo Ativo 128 / 124 40% 4 18.12.2027 -
Leandro Suhr Boston River Ativo 121 / 115 40% 1 17.12.2027 -
Matías Arezo Penarol Ativo 123 / 129 40% 2 15.12.2027 -
Esteban Obregón Montevideo City Torque Ativo 119 / 124 40% 1 13.12.2027 -
Bruno Barticciotto Talleres Ativo 126 / 131 40% 6 12.12.2027 -
William Osula Wrexham Ativo 131 / 145 40% 1 10.12.2027 -
Nicolás Barros Schelotto Gimnasia La Plata Ativo 117 / 122 40% 1 08.12.2027 -
Ibrahim Fullah Charlton Athletic Ativo 111 / 141 40% 1 08.12.2027 -
Ignacio Ramírez Newell's Old Boys Ativo 130 / 126 40% 5 06.12.2027 -
Favio Cabral Mitre Ativo 112 / 115 40% 5 05.12.2027 -
Jefry Zapata Aldosivi Ativo 112 / 122 40% 3 03.12.2027 -
Ammar Ramadan DAC Dunajska Streda Ativo 129 / 128 40% 9 30.11.2027 -
Tobías Cervera Gimnasia y Esgrima Ativo 119 / 118 40% 4 26.11.2027 -
Ramiro Ruiz Rodríguez Atlético Tucumán Ativo 115 / 122 40% 8 25.11.2027 -
Antony Alonso Deportivo Riestra Ativo 127 / 119 40% 3 22.11.2027 -
Nicolás Cordero Aldosivi Ativo 119 / 113 40% 2 22.11.2027 -
Gastón Verón Argentinos Juniors Ativo 125 / 119 40% 3 19.11.2027 -
Yoshan Valois Lanús Ativo 125 / 120 40% 4 07.11.2027 -
Matheus Aiás Noah Ativo 118 / 119 40% 2 17.10.2027 -
Edwuin Cetré Estudiantes Ativo 122 / 124 40% 3 16.10.2027 -
Mômô Fanyé Touré Alashkert Ativo 105 / 122 40% 1 11.10.2027 -
Mateo Bajamich Atlético Tucumán Ativo 126 / 114 40% 3 28.09.2027 -
Daniel Karlsbakk Sarpsborg 08 Ativo 123 / 119 40% 13 21.09.2027 -
Giorgi Kvernadze Frosinone Ativo 121 / 128 40% 1 09.08.2027 -
Luke Baartman Ajax Cape Town Ativo 108 / 127 40% 2 21.07.2027 -
Mateus Mané Burnley Ativo 143 / 145 40% 1 21.07.2027 -
Dylan Cabral Arsenal Ativo 93 / 107 40% 2 15.07.2027 -
Elijas Gunnergård Ortan Ahrobiznes Ativo 88 / 83 40% 1 15.07.2027 -
Leo Castledine Middlesbrough Ativo 120 / 133 40% 2 14.07.2027 -
Stanley Amon Bayelsa United Ativo 92 / 99 40% 1 14.07.2027 -
Braiden Graham Everton Ativo 103 / 110 40% 1 14.07.2027 -
George Brown Sheffield Wednesday Ativo 100 / 112 40% 2 13.07.2027 -
Abubakar Garba Nasarawa United Ativo 104 / 104 40% 1 13.07.2027 -
Matvii Ponomarenko Dynamo Kyiv Ativo 119 / 132 40% 1 11.07.2027 -
Fletcher Holman Swindon Town Ativo 90 / 100 40% 1 11.07.2027 -
Malick Sylla Oldham Athletic Ativo 82 / 94 40% 1 10.07.2027 -
Dilan Neves Benfica Ativo 82 / 103 40% 1 09.07.2027 -
Hassan Beja AFC Leopards Ativo 94 / 102 40% 1 08.07.2027 -
Tiago Freitas Benfica Ativo 108 / 114 40% 4 26.06.2027 -
Ezra Mayers West Ham United Ativo 108 / 122 40% 3 26.06.2027 -
Daniel Dennis Ikorodu City Ativo 102 / 84 40% 1 23.06.2027 -
Gonçalo Oliveira Benfica Ativo 116 / 115 40% 4 22.06.2027 -
Rhys Walters Port Vale Ativo 94 / 98 40% 1 18.06.2027 -
Tommaso Cecotti Carpi Ativo 85 / 96 40% 4 17.06.2027 -
Jenson Jones Walsall Ativo 101 / 99 40% 5 16.06.2027 -
Chari Giwa US Bougouni Ativo 87 / 68 40% 2 16.06.2027 -
Sascha Britschgi AC Milan Ativo 125 / 119 40% 4 11.06.2027 -
Kazunari Kita Real Sociedad Ativo 90 / 98 40% 4 09.06.2027 -
Maldini Kacurri Grimsby Town Ativo 96 / 87 40% 3 08.06.2027 -
Zane Albarus Shrewsbury Town Ativo 90 / 105 40% 2 05.06.2027 -
Rivaldo Mkhize Black Aces Ativo 73 / 88 40% 3 04.06.2027 -
Riley Owen Stevenage Ativo 97 / 114 40% 2 30.05.2027 -
Ahmed Akinyele Remo Stars Ativo 80 / 87 40% 1 30.05.2027 -
Samuele di Benedetto Twente Ativo 107 / 116 40% 3 27.05.2027 -
Pedro Vian Seewald Dolomiti Bellunesi Ativo 92 / 92 40% 2 23.05.2027 -
Riyad Idrissi Cagliari Ativo 119 / 118 40% 1 20.05.2027 -
Bade Aluko Leicester City Ativo 120 / 134 40% 1 19.05.2027 -
Mpho Khethang FC Diarra Ativo 86 / 91 40% 1 13.05.2027 -
Edwin Asamoah Berekum Chelsea Ativo 96 / 96 40% 1 10.05.2027 -
Afriyie Sulemana WAFA Ativo 78 / 82 40% 1 09.05.2027 -
Leandro Martins Benfica Ativo 90 / 102 40% 1 06.05.2027 -
Sibusiso Tshabalala Polokwane City Ativo 100 / 81 40% 1 02.03.2027 -
Jens Petter Hauge Bodo/Glimt Ativo 142 / 149 40% 2 22.02.2027 Mais informações
Mohammed Essien Hasaacas Ativo 119 / 88 40% 1 22.02.2027 -
Hannibal Burnley Ativo 136 / 136 40% 1 22.02.2027 -
Job Ochieng Real Sociedad Ativo 109 / 91 40% 1 01.02.2027 -
Egas Cacintura Akhmat Grozny Ativo 123 / 116 40% 7 30.01.2027 -
Andrey Langovich Rostov Ativo 120 / 112 40% 1 30.01.2027 -
Mandla Kekana Ajax Cape Town Ativo 104 / 102 40% 1 30.01.2027 -
Leandro Godoy CSKA Sofia Ativo 114 / 118 40% 8 29.01.2027 -
Mustapha Sangaré Levski Ativo 121 / 119 40% 8 29.01.2027 -
Tio Cipot NK Maribor Ativo 120 / 123 40% 4 26.01.2027 -
José Martínes CSKA 1948 Ativo 110 / 104 40% 1 26.01.2027 -
Erick Dolly Black Aces Ativo 109 / 112 40% 2 21.01.2027 -
Berna CSKA 1948 Ativo 111 / 111 40% 1 21.01.2027 -
Samuel Kalu Botev Plovdiv Ativo 117 / 126 40% 3 20.01.2027 -
Ronaldo Maarman University of Pretoria Ativo 110 / 112 40% 1 20.01.2027 -
Arthur Gomes Dinamo Moscow Ativo 130 / 129 40% 5 17.01.2027 -
Nikita Krivtsov Krasnodar Ativo 134 / 121 40% 1 16.01.2027 -
Etiosa Ighodaro Kaizer Chiefs Ativo 109 / 120 40% 3 14.01.2027 -
Stanislav Ivanov Arda Ativo 112 / 110 40% 1 08.01.2027 -
Veldin Hodža Rubin Ativo 120 / 124 40% 1 08.01.2027 -
Alexandr Chernikov Krasnodar Ativo 135 / 130 40% 1 08.01.2027 -
Suleiman Camara Slovan Bratislava Ativo 116 / 127 40% 1 07.01.2027 -
Franko Kovačević Ferencvaros Ativo 113 / 123 40% 4 05.01.2027 -
Brayan Gil Baltika Ativo 128 / 123 40% 9 02.01.2027 -
Maksim Samorodov Akhmat Grozny Ativo 118 / 130 40% 5 29.12.2026 -
Tamerlan Musaev CSKA Moscow Ativo 119 / 127 40% 1 29.12.2026 -
Kwadwo Duah Ludogorets Ativo 132 / 133 40% 7 28.12.2026 -
Mykola Kukharevych Slovan Bratislava Ativo 128 / 118 40% 1 27.12.2026 -
Jay Stansfield Birmingham Ativo 122 / 121 40% 8 23.12.2026 -
Jacques Siwe Rubin Ativo 119 / 109 40% 1 22.12.2026 -
Billal Messaoudi JS Kabylie Ativo 116 / 116 40% 1 20.12.2026 -
Daniel Paraschiv Bnei Sakhnin Ativo 107 / 116 40% 3 18.12.2026 -
Joel Asoro Apollon Ativo 111 / 110 40% 2 17.12.2026 -
Radek Šiler Podbrezova Ativo 104 / 116 40% 1 17.12.2026 -
Younes Ebnoutalib Eintracht Frankfurt Ativo 117 / 130 40% 1 17.12.2026 -
Ephron Mason-Clark Coventry City Ativo 126 / 115 40% 1 14.12.2026 -
Ivo Mammini Beitar Jerusalem Ativo 110 / 134 40% 1 12.12.2026 -
Yarden Shua Beitar Jerusalem Ativo 131 / 129 40% 5 10.12.2026 -
Matheus Davó Maccabi Netanya Ativo 107 / 117 40% 2 08.12.2026 -
Kein Sato FC Tokyo Ativo 138 / 127 40% 7 10.11.2026 -
Aaron Kiil Olsen Valerenga Ativo 119 / 108 40% 1 05.11.2026 -
Filip Rønningen Jørgensen Odd Ativo 102 / 119 40% 1 05.11.2026 -
Emil Engqvist Aalesund Ativo 112 / 97 40% 1 05.11.2026 -
Steve Mvoué IK Start Ativo 115 / 110 40% 1 04.11.2026 -
Håkon Sjåtil Valerenga Ativo 117 / 111 40% 1 04.11.2026 -
Fernando Costanza Krylya Sovetov Ativo 117 / 113 40% 1 04.11.2026 -
Brice Ambina Valerenga Ativo 114 / 133 40% 1 02.11.2026 -
Rubens Dinamo Moscow Ativo 126 / 137 40% 1 02.11.2026 -
Terem Moffi Hamburger SV Ativo 128 / 133 40% 3 20.10.2026 -
Mirlind Daku Spartak Moscow Ativo 122 / 135 40% 2 28.09.2026 -
Sam Lammers PSV Ativo 109 / 125 40% 2 20.09.2026 -
Aimar Sher Sarpsborg 08 Ativo 120 / 109 40% 1 13.09.2026 -
Joe Bell Viking Ativo 134 / 116 40% 1 13.09.2026 -
Jordan Lotomba Bloemfontein Celtic Ativo 121 / 116 40% 1 13.09.2026 -
Hamode Kanaan Hapoel Beer Sheva Ativo 110 / 132 40% 2 11.09.2026 -
Borja Mayoral Getafe Ativo 128 / 122 40% 1 01.08.2026 -